createdAt,value
2022-12-18T00:01:35.753Z,43.23
2022-12-18T00:04:38.320Z,39.72
2022-12-18T00:07:40.640Z,41.85
2022-12-18T00:10:42.749Z,49.33
2022-12-18T00:13:45.521Z,43.58
2022-12-18T00:16:47.992Z,45.08
2022-12-18T00:19:50.471Z,44.83
2022-12-18T00:22:55.038Z,49.58
2022-12-18T00:26:00.534Z,43.45
2022-12-18T00:29:03.816Z,45.17
2022-12-18T00:32:08.176Z,49.07
2022-12-18T00:35:10.139Z,45.75
2022-12-18T00:38:12.112Z,44.85
2022-12-18T00:41:14.958Z,42.33
2022-12-18T00:44:17.658Z,45.45
2022-12-18T00:47:20.531Z,43.38
2022-12-18T00:50:22.794Z,45.13
2022-12-18T00:53:25.121Z,42.72
2022-12-18T00:56:27.059Z,42.70
2022-12-18T00:59:29.418Z,40.17
2022-12-18T01:02:31.626Z,52.13
2022-12-18T01:05:34.171Z,41.88
2022-12-18T01:08:36.835Z,46.85
2022-12-18T01:11:39.095Z,44.10
2022-12-18T01:14:41.092Z,47.80
2022-12-18T01:17:43.333Z,41.58
2022-12-18T01:20:45.263Z,46.20
2022-12-18T01:23:47.642Z,44.05
2022-12-18T01:26:49.736Z,44.28
2022-12-18T01:29:52.107Z,39.20
2022-12-18T01:32:55.179Z,45.93
2022-12-18T01:35:57.554Z,45.97
2022-12-18T01:39:04.210Z,44.88
2022-12-18T01:42:10.814Z,44.43
2022-12-18T01:45:13.128Z,44.08
2022-12-18T01:48:15.162Z,43.88
2022-12-18T01:51:18.898Z,49.90
2022-12-18T01:54:20.945Z,42.67
2022-12-18T01:57:23.196Z,42.33
2022-12-18T02:00:25.300Z,43.60
2022-12-18T02:03:27.294Z,45.10
2022-12-18T02:06:34.625Z,42.83
2022-12-18T02:09:47.823Z,41.33
2022-12-18T02:12:57.631Z,39.77
2022-12-18T02:16:02.100Z,40.78
2022-12-18T02:19:27.633Z,41.63
2022-12-18T02:22:36.257Z,40.22
2022-12-18T02:25:38.558Z,42.22
2022-12-18T02:28:47.467Z,41.38
2022-12-18T02:31:51.898Z,44.08
2022-12-18T02:34:54.039Z,40.07
2022-12-18T02:37:57.928Z,42.85
2022-12-18T02:41:00.458Z,39.13
2022-12-18T02:44:03.138Z,40.87
2022-12-18T02:47:09.653Z,40.95
2022-12-18T02:50:14.513Z,43.15
2022-12-18T02:53:23.878Z,40.03
2022-12-18T02:56:34.553Z,40.72
2022-12-18T02:59:41.146Z,41.20
2022-12-18T03:02:47.475Z,45.42
2022-12-18T03:05:49.739Z,40.53
2022-12-18T03:08:54.027Z,41.42
2022-12-18T03:12:23.875Z,44.20
2022-12-18T03:15:29.022Z,39.63
2022-12-18T03:18:46.547Z,40.88
2022-12-18T03:21:50.785Z,45.70
2022-12-18T03:24:53.615Z,40.63
2022-12-18T03:27:57.629Z,42.85
2022-12-18T03:31:00.650Z,37.85
2022-12-18T03:34:05.452Z,44.22
2022-12-18T03:37:15.936Z,43.33
2022-12-18T03:40:18.035Z,41.55
2022-12-18T03:43:25.954Z,44.42
2022-12-18T03:46:29.459Z,40.50
2022-12-18T03:49:37.872Z,39.67
2022-12-18T03:52:55.163Z,45.90
2022-12-18T03:55:58.329Z,47.05
2022-12-18T03:59:04.227Z,42.50
2022-12-18T04:02:08.544Z,48.03
2022-12-18T04:05:10.678Z,45.67
2022-12-18T04:08:15.790Z,47.67
2022-12-18T04:11:24.850Z,41.28
2022-12-18T04:14:27.327Z,44.80
2022-12-18T04:17:32.381Z,46.90
2022-12-18T04:20:34.375Z,47.08
2022-12-18T04:23:37.382Z,41.13
2022-12-18T04:26:39.618Z,44.58
2022-12-18T04:29:51.811Z,41.40
2022-12-18T04:32:54.274Z,47.17
2022-12-18T04:35:57.492Z,40.22
2022-12-18T04:39:01.805Z,45.97
2022-12-18T04:42:03.999Z,46.75
2022-12-18T04:45:06.564Z,44.08
2022-12-18T04:48:09.026Z,55.20
2022-12-18T04:51:11.672Z,43.50
2022-12-18T04:54:14.709Z,46.75
2022-12-18T04:57:16.698Z,47.35
2022-12-18T05:00:18.998Z,47.97
2022-12-18T05:03:20.994Z,51.97
2022-12-18T05:06:23.016Z,52.05
2022-12-18T05:09:24.944Z,50.57
2022-12-18T05:12:26.939Z,49.28
2022-12-18T05:15:31.939Z,52.78
2022-12-18T05:18:33.969Z,51.90
2022-12-18T05:21:36.404Z,51.97
2022-12-18T05:24:38.414Z,46.03
2022-12-18T05:27:40.747Z,54.63
2022-12-18T05:30:42.755Z,50.35
2022-12-18T05:33:44.718Z,46.22
2022-12-18T05:36:46.726Z,44.67
2022-12-18T05:39:48.649Z,50.93
2022-12-18T05:42:50.846Z,49.92
2022-12-18T05:45:53.639Z,44.90
2022-12-18T05:48:55.846Z,52.07
2022-12-18T05:51:57.866Z,48.78
2022-12-18T05:55:00.277Z,50.50
2022-12-18T05:58:02.670Z,50.60
2022-12-18T06:01:12.622Z,51.28
2022-12-18T06:04:14.617Z,50.85
2022-12-18T06:07:16.602Z,47.40
2022-12-18T06:10:18.632Z,48.40
2022-12-18T06:13:20.841Z,48.92
2022-12-18T06:16:22.829Z,49.78
2022-12-18T06:19:25.254Z,64.50
2022-12-18T06:22:27.203Z,55.95
2022-12-18T06:25:29.407Z,45.88
2022-12-18T06:28:31.351Z,46.08
2022-12-18T06:31:33.725Z,46.78
2022-12-18T06:34:35.711Z,46.20
2022-12-18T06:37:37.704Z,46.60
2022-12-18T06:40:40.492Z,47.90
2022-12-18T06:43:42.985Z,51.70
2022-12-18T06:46:45.081Z,51.13
2022-12-18T06:49:47.441Z,49.57
2022-12-18T06:52:49.360Z,55.53
2022-12-18T06:55:52.195Z,68.82
2022-12-18T06:58:54.189Z,64.88
2022-12-18T07:01:56.361Z,56.33
2022-12-18T07:04:58.490Z,63.97
2022-12-18T07:08:00.591Z,54.35
2022-12-18T07:11:04.130Z,59.03
2022-12-18T07:14:06.107Z,50.03
2022-12-18T07:17:08.482Z,59.75
2022-12-18T07:20:11.094Z,56.23
2022-12-18T07:23:13.432Z,52.28
2022-12-18T07:26:16.301Z,59.05
2022-12-18T07:29:18.234Z,61.00
2022-12-18T07:32:20.203Z,54.85
2022-12-18T07:35:24.967Z,58.35
2022-12-18T07:38:27.783Z,55.35
2022-12-18T07:41:30.321Z,59.37
2022-12-18T07:44:38.561Z,60.05
2022-12-18T07:47:42.201Z,73.47
2022-12-18T07:50:44.544Z,59.23
2022-12-18T07:53:46.801Z,59.92
2022-12-18T07:56:54.484Z,55.65
2022-12-18T07:59:56.822Z,64.68
2022-12-18T08:02:59.018Z,59.55
2022-12-18T08:06:01.966Z,60.13
2022-12-18T08:09:04.059Z,57.85
2022-12-18T08:12:06.743Z,50.20
2022-12-18T08:15:09.074Z,51.85
2022-12-18T08:18:14.209Z,51.65
2022-12-18T08:21:17.939Z,55.37
2022-12-18T08:24:20.300Z,54.55
2022-12-18T08:27:30.271Z,48.17
2022-12-18T08:30:33.003Z,63.78
2022-12-18T08:33:35.384Z,58.05
2022-12-18T08:36:37.483Z,54.22
2022-12-18T08:39:40.066Z,44.17
2022-12-18T08:43:00.907Z,47.47
2022-12-18T08:46:03.445Z,40.42
2022-12-18T08:49:05.698Z,43.22
2022-12-18T08:52:07.725Z,38.33
2022-12-18T08:55:10.634Z,37.08
2022-12-18T08:58:13.133Z,35.83
2022-12-18T09:01:15.299Z,48.28
2022-12-18T09:04:17.566Z,39.85
2022-12-18T09:07:19.569Z,38.50
2022-12-18T09:10:21.577Z,31.13
2022-12-18T09:13:24.392Z,34.63
2022-12-18T09:16:31.616Z,34.55
2022-12-18T09:19:34.513Z,36.20
2022-12-18T09:22:36.607Z,30.53
2022-12-18T09:25:38.885Z,34.55
2022-12-18T09:28:41.197Z,36.03
2022-12-18T09:31:43.443Z,40.47
2022-12-18T09:34:45.446Z,40.97
2022-12-18T09:37:47.504Z,38.30
2022-12-18T09:40:50.742Z,46.83
2022-12-18T09:43:53.415Z,38.47
2022-12-18T09:47:00.958Z,43.45
2022-12-18T09:50:03.770Z,38.50
2022-12-18T09:53:07.092Z,48.77
2022-12-18T09:56:11.409Z,45.17
2022-12-18T09:59:21.372Z,43.65
2022-12-18T10:02:24.246Z,44.53
2022-12-18T10:05:35.911Z,36.88
2022-12-18T10:08:44.081Z,38.97
2022-12-18T10:12:25.055Z,41.33
2022-12-18T10:15:32.410Z,39.37
2022-12-18T10:18:37.738Z,41.10
2022-12-18T10:21:41.737Z,49.70
2022-12-18T10:24:46.771Z,45.50
2022-12-18T10:27:48.688Z,42.05
2022-12-18T10:30:51.175Z,43.22
2022-12-18T10:33:54.835Z,39.00
2022-12-18T10:36:58.549Z,44.47
2022-12-18T10:40:15.331Z,39.05
2022-12-18T10:43:24.113Z,39.92
2022-12-18T10:46:26.519Z,34.23
2022-12-18T10:49:29.333Z,39.50
2022-12-18T10:52:31.473Z,38.00
2022-12-18T10:55:33.600Z,39.23
2022-12-18T10:58:36.511Z,35.00
2022-12-18T11:01:48.118Z,32.15
2022-12-18T11:04:53.172Z,36.72
2022-12-18T11:07:55.891Z,31.70
2022-12-18T11:10:58.319Z,37.65
2022-12-18T11:14:04.822Z,34.25
2022-12-18T11:17:25.473Z,35.10
2022-12-18T11:20:38.182Z,37.55
2022-12-18T11:23:48.372Z,35.90
2022-12-18T11:26:57.848Z,35.03
2022-12-18T11:30:10.982Z,40.47
2022-12-18T11:33:17.363Z,39.63
2022-12-18T11:36:19.424Z,38.58
2022-12-18T11:39:25.878Z,37.67
2022-12-18T11:42:36.814Z,38.78
2022-12-18T11:45:48.471Z,40.70
2022-12-18T11:48:55.513Z,38.17
2022-12-18T11:52:00.018Z,32.42
2022-12-18T11:55:03.004Z,34.33
2022-12-18T11:58:30.930Z,35.97
2022-12-18T12:01:36.502Z,34.92
2022-12-18T12:05:12.692Z,32.13
2022-12-18T12:08:14.716Z,29.92
2022-12-18T12:11:16.633Z,33.57
2022-12-18T12:14:28.162Z,36.85
2022-12-18T12:17:30.502Z,32.63
2022-12-18T12:20:51.083Z,33.65
2022-12-18T12:23:59.749Z,33.85
2022-12-18T12:27:15.636Z,37.58
2022-12-18T12:30:37.857Z,39.20
2022-12-18T12:33:51.879Z,61.33
2022-12-18T12:37:12.922Z,33.10
2022-12-18T12:40:48.461Z,27.60
2022-12-18T12:43:49.610Z,31.98
2022-12-18T12:46:53.815Z,27.25
2022-12-18T12:49:56.299Z,27.17
2022-12-18T12:52:58.433Z,25.27
2022-12-18T12:56:01.003Z,34.27
2022-12-18T12:59:12.561Z,43.63
2022-12-18T13:02:15.258Z,30.73
2022-12-18T13:05:22.698Z,26.63
2022-12-18T13:08:33.321Z,26.55
2022-12-18T13:11:59.994Z,39.63
2022-12-18T13:15:21.425Z,33.28
2022-12-18T13:18:24.803Z,32.23
2022-12-18T13:21:28.634Z,31.38
2022-12-18T13:24:31.665Z,28.67
2022-12-18T13:27:46.578Z,30.43
2022-12-18T13:30:50.829Z,33.58
2022-12-18T13:34:25.112Z,30.65
2022-12-18T13:37:32.507Z,31.48
2022-12-18T13:40:40.750Z,31.30
2022-12-18T13:43:44.613Z,35.47
2022-12-18T13:46:47.316Z,32.72
2022-12-18T13:49:49.676Z,51.10
2022-12-18T13:52:51.646Z,58.90
2022-12-18T13:55:54.175Z,56.27
2022-12-18T13:59:25.322Z,44.05
2022-12-18T14:02:28.446Z,55.75
2022-12-18T14:05:32.144Z,61.83
2022-12-18T14:08:36.280Z,39.85
2022-12-18T14:11:39.761Z,39.83
2022-12-18T14:14:48.140Z,38.58
2022-12-18T14:17:55.326Z,66.93
2022-12-18T14:21:00.972Z,67.15
2022-12-18T14:24:06.329Z,55.63
2022-12-18T14:27:21.807Z,38.63
2022-12-18T14:30:33.876Z,81.80
2022-12-18T14:33:37.245Z,84.88
2022-12-18T14:36:40.956Z,91.50
2022-12-18T14:39:53.292Z,52.08
2022-12-18T14:42:55.386Z,40.95
2022-12-18T14:45:57.581Z,45.60
2022-12-18T14:49:00.223Z,40.60
2022-12-18T14:52:02.932Z,43.13
2022-12-18T14:55:05.072Z,42.70
2022-12-18T14:58:07.071Z,46.43
2022-12-18T15:01:09.589Z,44.67
2022-12-18T15:04:29.803Z,65.65
2022-12-18T15:07:42.069Z,73.20
2022-12-18T15:10:48.255Z,77.68
2022-12-18T15:13:50.197Z,59.95
2022-12-18T15:16:53.614Z,67.68
2022-12-18T15:20:00.739Z,63.17
2022-12-18T15:23:02.744Z,59.20
2022-12-18T15:26:09.843Z,59.70
2022-12-18T15:29:22.774Z,55.97
2022-12-18T15:32:25.111Z,82.03
2022-12-18T15:35:27.380Z,74.32
2022-12-18T15:38:29.549Z,72.23
2022-12-18T15:41:32.368Z,71.70
2022-12-18T15:44:36.506Z,72.53
2022-12-18T15:47:38.499Z,80.82
2022-12-18T15:50:40.443Z,82.10
2022-12-18T15:53:43.163Z,83.00
2022-12-18T15:57:04.224Z,77.85
2022-12-18T16:00:06.916Z,82.27
2022-12-18T16:03:09.500Z,93.80
2022-12-18T16:06:11.578Z,92.90
2022-12-18T16:09:13.866Z,96.03
2022-12-18T16:12:16.786Z,89.80
2022-12-18T16:15:24.313Z,109.80
2022-12-18T16:18:26.903Z,115.53
2022-12-18T16:21:33.830Z,140.57
2022-12-18T16:24:40.423Z,137.90
2022-12-18T16:27:42.785Z,139.32
2022-12-18T16:30:46.167Z,115.00
2022-12-18T16:33:48.275Z,145.88
2022-12-18T16:36:51.020Z,140.43
2022-12-18T16:39:53.339Z,156.40
2022-12-18T16:42:55.754Z,148.43
2022-12-18T16:45:59.580Z,131.57
2022-12-18T16:49:02.178Z,117.55
2022-12-18T16:52:04.795Z,124.30
2022-12-18T16:55:06.958Z,111.25
2022-12-18T16:58:08.953Z,110.38
2022-12-18T17:01:11.208Z,109.07
2022-12-18T17:04:13.208Z,124.25
2022-12-18T17:07:16.138Z,108.10
2022-12-18T17:10:18.140Z,111.77
2022-12-18T17:13:25.611Z,119.65
2022-12-18T17:16:28.027Z,116.78
2022-12-18T17:19:31.010Z,138.45
2022-12-18T17:22:33.172Z,136.35
2022-12-18T17:25:35.191Z,141.75
2022-12-18T17:28:37.826Z,143.65
2022-12-18T17:31:40.308Z,136.23
2022-12-18T17:34:42.447Z,130.60
2022-12-18T17:37:44.632Z,131.88
2022-12-18T17:40:46.718Z,128.80
2022-12-18T17:43:59.371Z,129.82
2022-12-18T17:47:01.582Z,128.38
2022-12-18T17:50:03.771Z,124.25
2022-12-18T17:53:06.247Z,137.00
2022-12-18T17:56:09.129Z,125.13
2022-12-18T17:59:11.140Z,111.60
2022-12-18T18:02:13.296Z,110.97
2022-12-18T18:05:16.421Z,122.43
2022-12-18T18:08:20.155Z,133.02
2022-12-18T18:11:41.422Z,207.07
2022-12-18T18:14:43.622Z,258.83
2022-12-18T18:17:46.090Z,261.67
2022-12-18T18:20:48.178Z,443.52
2022-12-18T18:23:50.638Z,241.38
2022-12-18T18:26:55.245Z,186.93
2022-12-18T18:29:57.251Z,157.70
2022-12-18T18:32:59.287Z,130.60
2022-12-18T18:36:01.665Z,158.18
2022-12-18T18:39:03.851Z,181.68
2022-12-18T18:42:06.330Z,170.93
2022-12-18T18:45:08.906Z,122.22
2022-12-18T18:48:11.622Z,113.28
2022-12-18T18:51:21.058Z,121.53
2022-12-18T18:54:24.453Z,119.68
2022-12-18T18:57:30.271Z,122.00
2022-12-18T19:00:32.706Z,112.55
2022-12-18T19:03:35.580Z,132.80
2022-12-18T19:06:38.111Z,136.77
2022-12-18T19:09:41.817Z,139.52
2022-12-18T19:13:02.480Z,144.13
2022-12-18T19:16:05.593Z,133.13
2022-12-18T19:19:08.693Z,122.78
2022-12-18T19:22:11.245Z,108.72
2022-12-18T19:25:13.742Z,104.07
2022-12-18T19:28:21.473Z,110.22
2022-12-18T19:31:28.157Z,106.00
2022-12-18T19:34:34.448Z,93.90
2022-12-18T19:37:36.978Z,89.38
2022-12-18T19:40:42.360Z,87.32
2022-12-18T19:43:44.695Z,87.63
2022-12-18T19:46:47.246Z,81.80
2022-12-18T19:49:49.725Z,77.72
2022-12-18T19:52:51.727Z,84.20
2022-12-18T19:55:53.751Z,79.45
2022-12-18T19:58:55.876Z,74.90
2022-12-18T20:01:58.389Z,84.90
2022-12-18T20:05:00.489Z,76.93
2022-12-18T20:08:02.517Z,70.43
2022-12-18T20:11:04.917Z,76.68
2022-12-18T20:14:07.487Z,77.73
2022-12-18T20:17:09.487Z,70.97
2022-12-18T20:20:15.103Z,164.55
2022-12-18T20:23:18.333Z,339.63
2022-12-18T20:26:20.889Z,213.80
2022-12-18T20:29:23.036Z,145.80
2022-12-18T20:32:25.421Z,102.60
2022-12-18T20:35:28.907Z,75.60
2022-12-18T20:38:31.073Z,70.90
2022-12-18T20:41:37.852Z,74.93
2022-12-18T20:44:40.858Z,59.93
2022-12-18T20:47:42.890Z,61.20
2022-12-18T20:50:45.323Z,67.60
2022-12-18T20:53:47.470Z,76.05
2022-12-18T20:56:50.100Z,70.40
2022-12-18T20:59:52.229Z,67.88
2022-12-18T21:02:54.881Z,69.70
2022-12-18T21:05:57.044Z,72.10
2022-12-18T21:08:59.083Z,73.80
2022-12-18T21:12:19.630Z,83.28
2022-12-18T21:15:28.184Z,88.37
2022-12-18T21:18:31.134Z,88.10
2022-12-18T21:21:35.898Z,81.38
2022-12-18T21:24:41.002Z,78.35
2022-12-18T21:27:43.064Z,83.15
2022-12-18T21:30:45.161Z,85.43
2022-12-18T21:33:47.331Z,95.50
2022-12-18T21:36:50.373Z,87.23
2022-12-18T21:39:52.333Z,78.63
2022-12-18T21:43:16.628Z,80.93
2022-12-18T21:46:20.234Z,80.10
2022-12-18T21:49:22.430Z,87.50
2022-12-18T21:52:32.349Z,87.88
2022-12-18T21:55:35.140Z,97.15
2022-12-18T21:58:37.134Z,80.18
2022-12-18T22:01:39.881Z,108.22
2022-12-18T22:04:42.404Z,90.57
2022-12-18T22:07:44.499Z,100.47
2022-12-18T22:10:46.832Z,89.07
2022-12-18T22:13:49.518Z,100.40
2022-12-18T22:16:52.512Z,97.57
2022-12-18T22:19:55.791Z,111.85
2022-12-18T22:23:03.926Z,106.82
2022-12-18T22:26:08.682Z,96.40
2022-12-18T22:29:33.816Z,119.22
2022-12-18T22:32:37.284Z,94.72
2022-12-18T22:35:39.318Z,91.75
2022-12-18T22:38:41.890Z,91.03
2022-12-18T22:41:43.934Z,96.78
2022-12-18T22:44:46.006Z,102.82
2022-12-18T22:47:48.094Z,97.50
2022-12-18T22:50:50.037Z,101.68
2022-12-18T22:53:53.616Z,113.53
2022-12-18T22:56:57.135Z,109.45
2022-12-18T22:59:59.120Z,134.45
2022-12-18T23:03:01.825Z,91.80
2022-12-18T23:06:07.104Z,86.43
2022-12-18T23:09:15.924Z,116.67
2022-12-18T23:12:18.246Z,99.43
2022-12-18T23:15:22.869Z,119.35
2022-12-18T23:18:30.191Z,82.87
2022-12-18T23:21:32.317Z,91.30
2022-12-18T23:24:36.088Z,101.85
2022-12-18T23:27:38.682Z,124.47
2022-12-18T23:30:41.079Z,98.75
2022-12-18T23:33:43.245Z,92.22
2022-12-18T23:36:48.436Z,95.40
2022-12-18T23:39:52.087Z,84.97
2022-12-18T23:42:54.043Z,109.30
2022-12-18T23:45:55.977Z,84.85
2022-12-18T23:48:59.019Z,90.40
2022-12-18T23:52:01.454Z,97.13
2022-12-18T23:55:03.581Z,93.80
2022-12-18T23:58:06.082Z,89.63
